createdAt,value
2023-02-22T00:01:35.918Z,87.79
2023-02-22T00:04:05.330Z,88.06
2023-02-22T00:06:32.866Z,88.18
2023-02-22T00:09:02.495Z,88.28
2023-02-22T00:11:31.667Z,88.55
2023-02-22T00:13:58.538Z,88.67
2023-02-22T00:16:26.771Z,88.72
2023-02-22T00:18:54.169Z,89.04
2023-02-22T00:21:21.372Z,89.44
2023-02-22T00:23:49.030Z,89.47
2023-02-22T00:26:18.567Z,89.39
2023-02-22T00:28:51.002Z,89.45
2023-02-22T00:31:18.921Z,89.38
2023-02-22T00:33:46.289Z,89.21
2023-02-22T00:36:13.743Z,89.38
2023-02-22T00:38:41.914Z,89.53
2023-02-22T00:41:09.410Z,89.55
2023-02-22T00:43:36.227Z,89.70
2023-02-22T00:46:03.060Z,89.71
2023-02-22T00:48:29.854Z,89.87
2023-02-22T00:50:56.665Z,89.84
2023-02-22T00:53:24.615Z,89.79
2023-02-22T00:55:52.030Z,89.81
2023-02-22T00:58:18.849Z,89.76
2023-02-22T01:00:46.538Z,89.66
2023-02-22T01:03:15.462Z,89.42
2023-02-22T01:05:43.069Z,89.62
2023-02-22T01:08:13.043Z,89.42
2023-02-22T01:10:40.724Z,89.33
2023-02-22T01:13:09.587Z,89.06
2023-02-22T01:15:38.161Z,89.02
2023-02-22T01:18:05.382Z,89.13
2023-02-22T01:20:32.727Z,88.99
2023-02-22T01:23:01.430Z,88.89
2023-02-22T01:25:30.680Z,89.01
2023-02-22T01:28:02.659Z,88.71
2023-02-22T01:30:33.328Z,88.92
2023-02-22T01:33:02.095Z,88.92
2023-02-22T01:35:32.921Z,88.89
2023-02-22T01:37:59.756Z,89.06
2023-02-22T01:40:33.375Z,88.93
2023-02-22T01:43:16.169Z,88.82
2023-02-22T01:45:50.245Z,88.73
2023-02-22T01:48:40.963Z,88.85
2023-02-22T01:51:30.067Z,88.89
2023-02-22T01:54:04.868Z,88.89
2023-02-22T01:56:34.617Z,88.83
2023-02-22T01:59:10.381Z,88.73
2023-02-22T02:01:40.098Z,88.81
2023-02-22T02:04:13.142Z,88.88
2023-02-22T02:06:42.438Z,88.77
2023-02-22T02:09:20.627Z,88.93
2023-02-22T02:11:48.639Z,88.87
2023-02-22T02:14:15.734Z,88.70
2023-02-22T02:16:46.258Z,88.93
2023-02-22T02:19:22.447Z,88.96
2023-02-22T02:22:21.354Z,89.06
2023-02-22T02:25:06.880Z,89.03
2023-02-22T02:27:55.222Z,89.10
2023-02-22T02:31:07.856Z,89.10
2023-02-22T02:33:38.092Z,88.85
2023-02-22T02:36:30.453Z,89.05
2023-02-22T02:39:25.922Z,88.95
2023-02-22T02:41:53.118Z,89.05
2023-02-22T02:44:41.622Z,89.19
2023-02-22T02:47:46.442Z,89.37
2023-02-22T02:50:24.968Z,89.39
2023-02-22T02:52:55.574Z,89.37
2023-02-22T02:55:22.655Z,89.53
2023-02-22T02:57:49.368Z,89.45
2023-02-22T03:03:31.233Z,89.45
2023-02-22T03:06:05.242Z,89.47
2023-02-22T03:08:57.282Z,89.58
2023-02-22T03:11:48.657Z,89.44
2023-02-22T03:14:25.417Z,89.49
2023-02-22T03:17:02.077Z,89.53
2023-02-22T03:19:28.770Z,89.51
2023-02-22T03:21:58.532Z,89.67
2023-02-22T03:24:37.506Z,89.58
2023-02-22T03:27:21.863Z,89.62
2023-02-22T03:29:52.018Z,89.67
2023-02-22T03:32:25.862Z,89.73
2023-02-22T03:35:06.670Z,89.85
2023-02-22T03:37:38.374Z,89.81
2023-02-22T03:40:17.568Z,89.94
2023-02-22T03:42:51.997Z,89.97
2023-02-22T03:45:21.319Z,90.15
2023-02-22T03:47:51.831Z,90.16
2023-02-22T03:50:22.250Z,90.13
2023-02-22T03:52:49.262Z,90.11
2023-02-22T03:55:17.862Z,90.16
2023-02-22T03:57:51.624Z,90.18
2023-02-22T04:00:26.600Z,89.96
2023-02-22T04:02:53.531Z,90.11
2023-02-22T04:05:20.363Z,90.27
2023-02-22T04:07:47.137Z,89.84
2023-02-22T04:10:16.157Z,89.75
2023-02-22T04:12:43.899Z,89.75
2023-02-22T04:15:15.631Z,89.78
2023-02-22T04:17:42.489Z,89.83
2023-02-22T04:20:10.175Z,89.85
2023-02-22T04:22:36.826Z,89.92
2023-02-22T04:25:03.600Z,90.00
2023-02-22T04:27:30.338Z,89.77
2023-02-22T04:29:57.057Z,90.00
2023-02-22T04:32:23.842Z,90.01
2023-02-22T04:34:50.555Z,90.21
2023-02-22T04:37:17.293Z,90.17
2023-02-22T04:39:44.088Z,90.58
2023-02-22T04:42:10.839Z,90.25
2023-02-22T04:44:37.601Z,90.15
2023-02-22T04:47:04.425Z,90.35
2023-02-22T04:49:31.106Z,90.19
2023-02-22T04:51:57.794Z,90.39
2023-02-22T04:54:24.534Z,89.88
2023-02-22T04:56:52.256Z,89.92
2023-02-22T04:59:19.882Z,90.17
2023-02-22T05:01:46.751Z,90.04
2023-02-22T05:04:13.487Z,89.93
2023-02-22T05:06:40.536Z,89.42
2023-02-22T05:09:07.291Z,89.34
2023-02-22T05:11:34.131Z,89.33
2023-02-22T05:14:00.970Z,89.28
2023-02-22T05:16:27.961Z,89.23
2023-02-22T05:18:54.705Z,89.03
2023-02-22T05:21:21.583Z,88.93
2023-02-22T05:23:49.503Z,88.75
2023-02-22T05:26:16.329Z,88.85
2023-02-22T05:28:43.032Z,88.88
2023-02-22T05:31:09.886Z,88.76
2023-02-22T05:33:36.716Z,88.48
2023-02-22T05:36:04.686Z,88.31
2023-02-22T05:38:31.411Z,88.39
2023-02-22T05:40:58.172Z,88.37
2023-02-22T05:43:25.940Z,88.36
2023-02-22T05:45:52.677Z,88.18
2023-02-22T05:48:21.274Z,88.28
2023-02-22T05:50:50.005Z,88.30
2023-02-22T05:53:16.784Z,87.93
2023-02-22T05:55:45.588Z,87.93
2023-02-22T05:58:13.093Z,87.75
2023-02-22T06:00:39.817Z,87.83
2023-02-22T06:03:08.657Z,87.66
2023-02-22T06:05:36.294Z,87.64
2023-02-22T06:08:04.509Z,87.59
2023-02-22T06:10:31.451Z,87.75
2023-02-22T06:12:59.365Z,87.48
2023-02-22T06:15:27.519Z,87.59
2023-02-22T06:17:56.543Z,87.47
2023-02-22T06:20:24.605Z,87.15
2023-02-22T06:22:54.177Z,87.35
2023-02-22T06:25:24.292Z,87.01
2023-02-22T06:27:51.465Z,87.27
2023-02-22T06:30:21.475Z,87.07
2023-02-22T06:32:48.293Z,87.23
2023-02-22T06:35:15.772Z,87.02
2023-02-22T06:37:42.567Z,87.09
2023-02-22T06:40:11.370Z,87.18
2023-02-22T06:42:38.971Z,87.10
2023-02-22T06:45:06.048Z,87.12
2023-02-22T06:47:32.819Z,87.27
2023-02-22T06:50:01.070Z,87.17
2023-02-22T06:52:27.782Z,87.04
2023-02-22T06:54:54.554Z,87.13
2023-02-22T06:57:21.366Z,87.29
2023-02-22T06:59:48.077Z,86.95
2023-02-22T07:02:15.080Z,87.53
2023-02-22T07:04:45.565Z,87.23
2023-02-22T07:07:12.280Z,87.18
2023-02-22T07:09:39.041Z,87.40
2023-02-22T07:12:05.846Z,87.36
2023-02-22T07:14:32.589Z,87.35
2023-02-22T07:16:59.282Z,87.52
2023-02-22T07:19:26.032Z,87.31
2023-02-22T07:21:59.309Z,87.37
2023-02-22T07:24:28.621Z,87.53
2023-02-22T07:26:55.446Z,87.65
2023-02-22T07:29:22.621Z,87.60
2023-02-22T07:31:49.675Z,87.60
2023-02-22T07:34:16.540Z,87.68
2023-02-22T07:36:43.397Z,87.62
2023-02-22T07:39:11.191Z,87.71
2023-02-22T07:41:37.916Z,87.67
2023-02-22T07:44:04.942Z,87.60
2023-02-22T07:46:31.681Z,87.69
2023-02-22T07:48:58.381Z,87.83
2023-02-22T07:51:25.207Z,87.91
2023-02-22T07:53:51.916Z,87.90
2023-02-22T07:56:18.836Z,88.02
2023-02-22T07:58:45.638Z,87.79
2023-02-22T08:01:12.362Z,87.95
2023-02-22T08:03:39.127Z,87.98
2023-02-22T08:06:07.688Z,87.82
2023-02-22T08:08:34.608Z,88.28
2023-02-22T08:11:01.756Z,88.02
2023-02-22T08:13:28.582Z,88.13
2023-02-22T08:15:56.157Z,88.05
2023-02-22T08:18:24.768Z,87.98
2023-02-22T08:20:53.059Z,88.31
2023-02-22T08:23:22.658Z,87.96
2023-02-22T08:25:49.402Z,87.76
2023-02-22T08:28:18.132Z,88.00
2023-02-22T08:30:44.919Z,88.01
2023-02-22T08:33:14.697Z,87.42
2023-02-22T08:35:41.733Z,87.55
2023-02-22T08:38:17.590Z,87.48
2023-02-22T08:40:44.333Z,87.52
2023-02-22T08:43:11.326Z,87.52
2023-02-22T08:45:38.638Z,87.77
2023-02-22T08:48:05.552Z,87.31
2023-02-22T08:50:36.350Z,87.50
2023-02-22T08:53:05.436Z,87.42
2023-02-22T08:55:35.334Z,87.11
2023-02-22T08:58:03.262Z,87.11
2023-02-22T09:00:33.430Z,87.11
2023-02-22T09:03:03.560Z,87.16
2023-02-22T09:05:31.701Z,86.87
2023-02-22T09:07:59.328Z,86.92
2023-02-22T09:10:29.521Z,86.83
2023-02-22T09:12:56.776Z,87.06
2023-02-22T09:15:25.486Z,86.87
2023-02-22T09:17:53.314Z,86.59
2023-02-22T09:20:21.681Z,86.34
2023-02-22T09:22:49.278Z,86.54
2023-02-22T09:25:18.327Z,86.31
2023-02-22T09:27:48.352Z,86.38
2023-02-22T09:30:32.225Z,86.30
2023-02-22T09:33:10.646Z,85.83
2023-02-22T09:35:42.441Z,85.75
2023-02-22T09:38:11.527Z,85.74
2023-02-22T09:40:45.654Z,85.93
2023-02-22T09:43:36.742Z,85.89
2023-02-22T09:46:36.129Z,85.64
2023-02-22T09:49:21.497Z,85.24
2023-02-22T09:52:02.693Z,85.27
2023-02-22T09:54:40.985Z,85.16
2023-02-22T09:57:13.779Z,85.32
2023-02-22T10:00:20.217Z,84.92
2023-02-22T10:03:14.749Z,84.99
2023-02-22T10:05:46.502Z,84.69
2023-02-22T10:08:19.100Z,84.63
2023-02-22T10:10:52.990Z,84.51
2023-02-22T10:13:34.881Z,84.36
2023-02-22T10:16:05.317Z,84.12
2023-02-22T10:19:03.510Z,83.98
2023-02-22T10:22:07.888Z,83.73
2023-02-22T10:24:46.661Z,83.44
2023-02-22T10:27:23.049Z,82.94
2023-02-22T10:29:57.293Z,83.04
2023-02-22T10:32:31.510Z,82.57
2023-02-22T10:35:00.008Z,83.01
2023-02-22T10:37:28.950Z,82.91
2023-02-22T10:40:17.664Z,82.53
2023-02-22T10:42:44.657Z,82.31
2023-02-22T10:45:36.084Z,82.01
2023-02-22T10:48:08.827Z,82.01
2023-02-22T10:50:40.896Z,81.96
2023-02-22T10:53:09.021Z,81.81
2023-02-22T10:55:36.642Z,81.91
2023-02-22T10:58:07.017Z,81.73
2023-02-22T11:00:39.333Z,81.63
2023-02-22T11:03:26.331Z,81.19
2023-02-22T11:05:53.554Z,81.60
2023-02-22T11:08:32.997Z,81.55
2023-02-22T11:11:20.519Z,81.10
2023-02-22T11:13:55.553Z,81.22
2023-02-22T11:16:32.131Z,81.29
2023-02-22T11:19:03.231Z,81.13
2023-02-22T11:21:32.628Z,81.00
2023-02-22T11:24:09.172Z,80.70
2023-02-22T11:26:44.728Z,80.69
2023-02-22T11:29:22.298Z,80.62
2023-02-22T11:31:50.046Z,80.45
2023-02-22T11:34:33.545Z,80.01
2023-02-22T11:37:26.075Z,79.61
2023-02-22T11:40:12.284Z,79.36
2023-02-22T11:42:39.100Z,79.21
2023-02-22T11:45:14.968Z,78.86
2023-02-22T11:47:55.532Z,78.62
2023-02-22T11:50:51.868Z,78.39
2023-02-22T11:53:46.411Z,78.22
2023-02-22T11:56:38.352Z,78.32
2023-02-22T11:59:32.677Z,78.17
2023-02-22T12:02:39.967Z,78.07
2023-02-22T12:05:08.455Z,77.87
2023-02-22T12:07:48.729Z,77.78
2023-02-22T12:10:22.940Z,77.28
2023-02-22T12:13:27.206Z,77.19
2023-02-22T12:15:59.780Z,77.04
2023-02-22T12:19:05.437Z,76.37
2023-02-22T12:21:36.550Z,76.77
2023-02-22T12:24:14.538Z,76.68
2023-02-22T12:26:44.277Z,76.35
2023-02-22T12:29:58.531Z,76.28
2023-02-22T12:32:38.380Z,75.98
2023-02-22T12:35:10.993Z,75.43
2023-02-22T12:37:53.403Z,75.18
2023-02-22T12:40:24.116Z,74.89
2023-02-22T12:43:00.777Z,74.94
2023-02-22T12:45:43.159Z,74.71
2023-02-22T12:48:26.466Z,74.23
2023-02-22T12:50:59.233Z,73.99
2023-02-22T12:53:31.428Z,73.47
2023-02-22T12:56:31.717Z,73.49
2023-02-22T12:59:08.266Z,73.41
2023-02-22T13:01:41.215Z,73.19
2023-02-22T13:04:20.154Z,72.88
2023-02-22T13:07:02.718Z,72.60
2023-02-22T13:09:47.601Z,72.59
2023-02-22T13:12:21.179Z,72.43
2023-02-22T13:15:03.100Z,72.04
2023-02-22T13:17:54.990Z,71.95
2023-02-22T13:20:35.044Z,71.91
2023-02-22T13:23:10.661Z,71.76
2023-02-22T13:25:52.571Z,71.61
2023-02-22T13:28:32.258Z,71.51
2023-02-22T13:31:25.490Z,71.25
2023-02-22T13:34:06.836Z,71.46
2023-02-22T13:37:05.661Z,71.47
2023-02-22T13:39:32.735Z,71.63
2023-02-22T13:42:02.401Z,71.13
2023-02-22T13:44:35.139Z,71.24
2023-02-22T13:47:17.220Z,70.85
2023-02-22T13:49:52.853Z,71.00
2023-02-22T13:52:27.906Z,70.94
2023-02-22T13:55:01.161Z,70.96
2023-02-22T13:57:29.638Z,70.82
2023-02-22T14:00:14.874Z,70.79
2023-02-22T14:03:03.141Z,70.71
2023-02-22T14:05:38.431Z,70.62
2023-02-22T14:08:06.606Z,70.80
2023-02-22T14:10:44.676Z,70.74
2023-02-22T14:13:12.444Z,70.75
2023-02-22T14:15:57.805Z,70.48
2023-02-22T14:18:45.763Z,70.38
2023-02-22T14:21:16.922Z,70.50
2023-02-22T14:23:52.421Z,70.43
2023-02-22T14:26:33.316Z,70.58
2023-02-22T14:29:23.160Z,70.61
2023-02-22T14:31:52.859Z,70.33
2023-02-22T14:34:22.898Z,70.39
2023-02-22T14:36:58.391Z,70.21
2023-02-22T14:39:38.474Z,70.43
2023-02-22T14:42:12.649Z,70.44
2023-02-22T14:45:03.140Z,70.21
2023-02-22T14:47:40.033Z,69.93
2023-02-22T14:50:45.327Z,69.79
2023-02-22T14:53:47.282Z,69.74
2023-02-22T14:56:23.200Z,69.85
2023-02-22T14:59:08.091Z,69.64
2023-02-22T15:01:52.767Z,69.46
2023-02-22T15:04:28.024Z,69.53
2023-02-22T15:06:57.175Z,69.38
2023-02-22T15:09:32.973Z,69.10
2023-02-22T15:12:14.427Z,69.04
2023-02-22T15:14:41.940Z,69.13
2023-02-22T15:17:22.594Z,68.74
2023-02-22T15:19:50.119Z,68.59
2023-02-22T15:22:24.457Z,68.44
2023-02-22T15:25:02.799Z,68.29
2023-02-22T15:27:29.785Z,68.16
2023-02-22T15:30:00.304Z,67.84
2023-02-22T15:32:53.402Z,67.87
2023-02-22T15:35:30.301Z,67.75
2023-02-22T15:38:12.362Z,67.60
2023-02-22T15:40:43.348Z,67.61
2023-02-22T15:43:28.557Z,67.45
2023-02-22T15:45:56.633Z,67.30
2023-02-22T15:48:26.282Z,66.87
2023-02-22T15:51:04.360Z,66.90
2023-02-22T15:53:45.401Z,66.84
2023-02-22T15:56:18.396Z,66.82
2023-02-22T15:58:48.271Z,66.89
2023-02-22T16:01:19.189Z,66.81
2023-02-22T16:03:50.588Z,66.64
2023-02-22T16:06:35.436Z,66.40
2023-02-22T16:09:09.864Z,66.42
2023-02-22T16:11:44.285Z,66.51
2023-02-22T16:14:44.996Z,66.54
2023-02-22T16:17:35.843Z,66.65
2023-02-22T16:20:11.744Z,66.93
2023-02-22T16:22:40.205Z,66.90
2023-02-22T16:25:18.862Z,66.96
2023-02-22T16:27:50.304Z,67.24
2023-02-22T16:30:24.390Z,67.33
2023-02-22T16:32:53.156Z,67.55
2023-02-22T16:35:19.966Z,67.69
2023-02-22T16:37:49.459Z,67.83
2023-02-22T16:40:34.670Z,68.01
2023-02-22T16:43:04.483Z,68.18
2023-02-22T16:45:31.287Z,68.15
2023-02-22T16:47:59.972Z,68.21
2023-02-22T16:50:26.903Z,68.45
2023-02-22T16:52:55.775Z,68.28
2023-02-22T16:55:23.062Z,68.25
2023-02-22T16:57:50.790Z,68.32
2023-02-22T17:00:31.352Z,68.26
2023-02-22T17:02:59.934Z,68.24
2023-02-22T17:05:27.107Z,68.29
2023-02-22T17:07:53.899Z,68.15
2023-02-22T17:10:20.804Z,68.29
2023-02-22T17:12:50.121Z,68.34
2023-02-22T17:15:21.484Z,68.34
2023-02-22T17:17:50.112Z,68.37
2023-02-22T17:20:24.959Z,68.40
2023-02-22T17:22:52.240Z,68.35
2023-02-22T17:25:23.044Z,68.39
2023-02-22T17:27:49.982Z,68.58
2023-02-22T17:30:18.136Z,68.54
2023-02-22T17:32:44.895Z,69.03
2023-02-22T17:35:11.597Z,68.88
2023-02-22T17:37:38.432Z,68.95
2023-02-22T17:40:05.465Z,69.37
2023-02-22T17:42:32.483Z,69.38
2023-02-22T17:44:59.276Z,69.47
2023-02-22T17:47:26.057Z,69.60
2023-02-22T17:49:52.958Z,69.94
2023-02-22T17:52:19.764Z,70.03
2023-02-22T17:54:46.445Z,70.23
2023-02-22T17:57:13.148Z,70.43
2023-02-22T17:59:40.690Z,70.80
2023-02-22T18:02:07.742Z,71.10
2023-02-22T18:04:39.666Z,71.63
2023-02-22T18:07:06.691Z,72.06
2023-02-22T18:09:35.756Z,72.30
2023-02-22T18:12:02.818Z,72.61
2023-02-22T18:14:29.770Z,72.77
2023-02-22T18:16:56.622Z,72.66
2023-02-22T18:19:23.467Z,72.92
2023-02-22T18:21:50.305Z,73.15
2023-02-22T18:24:17.519Z,72.93
2023-02-22T18:26:44.284Z,73.37
2023-02-22T18:29:12.438Z,73.27
2023-02-22T18:31:39.225Z,73.60
2023-02-22T18:34:06.527Z,73.65
2023-02-22T18:36:33.253Z,73.85
2023-02-22T18:38:59.950Z,74.14
2023-02-22T18:41:27.101Z,74.61
2023-02-22T18:43:55.638Z,74.58
2023-02-22T18:46:23.773Z,74.71
2023-02-22T18:48:54.317Z,74.85
2023-02-22T18:51:21.119Z,74.99
2023-02-22T18:53:50.197Z,75.08
2023-02-22T18:56:22.161Z,75.23
2023-02-22T18:58:53.830Z,75.33
2023-02-22T19:01:22.206Z,75.11
2023-02-22T19:03:51.968Z,75.29
2023-02-22T19:06:22.640Z,75.33
2023-02-22T19:08:51.174Z,75.71
2023-02-22T19:11:22.132Z,75.83
2023-02-22T19:13:51.987Z,76.16
2023-02-22T19:16:20.890Z,75.97
2023-02-22T19:18:52.637Z,76.44
2023-02-22T19:21:20.972Z,76.09
2023-02-22T19:23:49.093Z,76.23
2023-02-22T19:26:24.089Z,76.57
2023-02-22T19:28:53.568Z,76.60
2023-02-22T19:31:30.582Z,76.82
2023-02-22T19:34:05.630Z,76.86
2023-02-22T19:36:33.143Z,76.74
2023-02-22T19:39:03.498Z,76.70
2023-02-22T19:41:31.241Z,77.07
2023-02-22T19:44:03.254Z,77.13
2023-02-22T19:46:30.620Z,76.97
2023-02-22T19:49:00.671Z,77.11
2023-02-22T19:51:30.180Z,77.18
2023-02-22T19:54:07.260Z,77.32
2023-02-22T19:56:41.157Z,77.12
2023-02-22T19:59:13.615Z,77.33
2023-02-22T20:01:41.795Z,77.27
2023-02-22T20:04:11.073Z,77.02
2023-02-22T20:06:42.692Z,77.07
2023-02-22T20:09:13.810Z,77.32
2023-02-22T20:11:40.811Z,77.33
2023-02-22T20:14:08.185Z,77.45
2023-02-22T20:16:37.884Z,77.43
2023-02-22T20:19:04.669Z,77.31
2023-02-22T20:21:34.007Z,77.66
2023-02-22T20:24:03.378Z,77.78
2023-02-22T20:26:32.045Z,77.92
2023-02-22T20:28:59.703Z,77.87
2023-02-22T20:31:29.396Z,77.90
2023-02-22T20:33:58.595Z,78.23
2023-02-22T20:36:26.585Z,78.18
2023-02-22T20:38:55.564Z,78.42
2023-02-22T20:41:26.478Z,78.18
2023-02-22T20:43:55.420Z,78.35
2023-02-22T20:46:24.150Z,78.17
2023-02-22T20:48:58.855Z,78.16
2023-02-22T20:51:26.986Z,78.24
2023-02-22T20:53:54.171Z,78.22
2023-02-22T20:56:23.273Z,78.26
2023-02-22T20:58:52.670Z,78.24
2023-02-22T21:01:23.563Z,78.47
2023-02-22T21:03:50.843Z,78.28
2023-02-22T21:06:21.769Z,78.39
2023-02-22T21:08:54.097Z,77.98
2023-02-22T21:11:21.516Z,78.58
2023-02-22T21:13:48.433Z,78.35
2023-02-22T21:16:27.974Z,78.39
2023-02-22T21:18:58.589Z,78.31
2023-02-22T21:21:26.309Z,78.36
2023-02-22T21:23:55.806Z,78.43
2023-02-22T21:26:29.782Z,78.26
2023-02-22T21:29:00.986Z,78.38
2023-02-22T21:31:28.746Z,78.30
2023-02-22T21:33:59.471Z,78.77
2023-02-22T21:36:31.011Z,78.63
2023-02-22T21:39:02.734Z,78.43
2023-02-22T21:41:34.680Z,78.42
2023-02-22T21:44:01.677Z,78.47
2023-02-22T21:46:30.478Z,78.57
2023-02-22T21:48:58.975Z,78.50
2023-02-22T21:51:35.590Z,78.61
2023-02-22T21:54:07.406Z,78.59
2023-02-22T21:56:40.446Z,78.55
2023-02-22T21:59:23.481Z,78.54
2023-02-22T22:01:55.989Z,78.43
2023-02-22T22:04:28.647Z,78.58
2023-02-22T22:06:58.137Z,78.46
2023-02-22T22:09:28.966Z,78.28
2023-02-22T22:11:58.488Z,78.51
2023-02-22T22:14:27.215Z,78.60
2023-02-22T22:16:58.776Z,78.22
2023-02-22T22:19:27.300Z,78.39
2023-02-22T22:21:54.246Z,78.43
2023-02-22T22:24:23.771Z,78.43
2023-02-22T22:26:55.017Z,78.32
2023-02-22T22:29:28.589Z,78.49
2023-02-22T22:31:55.959Z,78.47
2023-02-22T22:34:29.508Z,78.32
2023-02-22T22:37:00.596Z,78.46
2023-02-22T22:39:27.831Z,78.34
2023-02-22T22:41:55.201Z,78.15
2023-02-22T22:44:22.545Z,78.41
2023-02-22T22:46:53.630Z,78.52
2023-02-22T22:49:21.040Z,78.45
2023-02-22T22:51:48.423Z,78.31
2023-02-22T22:54:15.230Z,78.26
2023-02-22T22:56:42.172Z,78.17
2023-02-22T22:59:10.580Z,77.98
2023-02-22T23:01:40.805Z,78.15
2023-02-22T23:04:10.430Z,78.10
2023-02-22T23:06:40.163Z,77.92
2023-02-22T23:09:13.506Z,77.81
2023-02-22T23:12:16.675Z,78.00
2023-02-22T23:14:45.481Z,77.90
2023-02-22T23:17:15.384Z,77.71
2023-02-22T23:19:46.841Z,77.86
2023-02-22T23:22:14.512Z,77.87
2023-02-22T23:24:41.572Z,77.71
2023-02-22T23:27:10.992Z,77.79
2023-02-22T23:29:40.732Z,77.79
2023-02-22T23:32:10.027Z,77.80
2023-02-22T23:34:41.282Z,77.68
2023-02-22T23:37:10.637Z,77.73
2023-02-22T23:39:38.515Z,77.89
2023-02-22T23:42:09.195Z,77.71
2023-02-22T23:44:36.350Z,78.00
2023-02-22T23:47:03.998Z,77.80
2023-02-22T23:49:38.153Z,77.81
2023-02-22T23:52:06.623Z,77.88
2023-02-22T23:54:36.604Z,77.76
2023-02-22T23:57:04.633Z,77.97
2023-02-22T23:59:32.036Z,78.26
